createdAt,value
2023-04-22T00:02:02.430Z,3.58
2023-04-22T00:04:29.257Z,4.13
2023-04-22T00:06:55.957Z,3.78
2023-04-22T00:09:22.444Z,3.33
2023-04-22T00:11:48.935Z,3.20
2023-04-22T00:14:15.406Z,3.20
2023-04-22T00:16:42.011Z,3.78
2023-04-22T00:19:08.596Z,4.18
2023-04-22T00:21:35.079Z,3.50
2023-04-22T00:24:01.712Z,4.25
2023-04-22T00:26:28.199Z,4.03
2023-04-22T00:28:54.869Z,3.40
2023-04-22T00:31:21.331Z,3.75
2023-04-22T00:33:47.916Z,3.90
2023-04-22T00:36:14.412Z,4.00
2023-04-22T00:38:41.965Z,3.40
2023-04-22T00:41:08.441Z,3.55
2023-04-22T00:43:35.009Z,3.92
2023-04-22T00:46:01.503Z,3.78
2023-04-22T00:48:28.990Z,3.47
2023-04-22T00:50:55.584Z,4.28
2023-04-22T00:53:22.057Z,3.50
2023-04-22T00:55:48.846Z,3.83
2023-04-22T00:58:15.876Z,3.95
2023-04-22T01:00:42.482Z,3.58
2023-04-22T01:03:10.678Z,4.03
2023-04-22T01:05:37.332Z,4.10
2023-04-22T01:08:03.845Z,3.38
2023-04-22T01:10:30.452Z,3.80
2023-04-22T01:12:56.921Z,3.65
2023-04-22T01:15:23.570Z,3.38
2023-04-22T01:17:50.982Z,3.90
2023-04-22T01:20:17.556Z,4.28
2023-04-22T01:22:45.511Z,4.03
2023-04-22T01:25:12.405Z,3.92
2023-04-22T01:27:39.294Z,4.07
2023-04-22T01:30:06.130Z,5.13
2023-04-22T01:32:33.154Z,4.35
2023-04-22T01:34:59.881Z,5.00
2023-04-22T01:37:26.330Z,3.58
2023-04-22T01:39:52.951Z,4.72
2023-04-22T01:42:19.627Z,4.10
2023-04-22T01:44:46.249Z,4.07
2023-04-22T01:47:13.446Z,3.33
2023-04-22T01:49:40.173Z,4.07
2023-04-22T01:52:06.850Z,4.18
2023-04-22T01:54:33.423Z,4.55
2023-04-22T01:56:59.908Z,4.25
2023-04-22T01:59:26.806Z,4.95
2023-04-22T02:01:53.406Z,5.18
2023-04-22T02:04:20.510Z,4.75
2023-04-22T02:06:47.067Z,4.80
2023-04-22T02:09:13.534Z,4.95
2023-04-22T02:11:40.083Z,4.47
2023-04-22T02:14:06.646Z,4.38
2023-04-22T02:16:35.237Z,4.47
2023-04-22T02:19:01.816Z,3.75
2023-04-22T02:21:32.674Z,4.55
2023-04-22T02:23:59.257Z,4.13
2023-04-22T02:26:26.102Z,3.80
2023-04-22T02:28:53.051Z,3.60
2023-04-22T02:31:22.526Z,4.25
2023-04-22T02:33:48.944Z,3.67
2023-04-22T02:36:15.471Z,3.63
2023-04-22T02:38:41.925Z,3.78
2023-04-22T02:41:08.430Z,3.38
2023-04-22T02:43:34.872Z,3.60
2023-04-22T02:46:01.327Z,3.80
2023-04-22T02:48:27.855Z,4.07
2023-04-22T02:50:54.363Z,3.95
2023-04-22T02:53:21.003Z,4.18
2023-04-22T02:55:47.493Z,4.18
2023-04-22T02:58:13.992Z,3.72
2023-04-22T03:00:40.504Z,4.18
2023-04-22T03:03:07.140Z,4.00
2023-04-22T03:05:33.711Z,4.82
2023-04-22T03:08:00.194Z,4.20
2023-04-22T03:10:26.625Z,4.28
2023-04-22T03:12:53.077Z,4.03
2023-04-22T03:15:21.517Z,4.13
2023-04-22T03:17:48.348Z,4.72
2023-04-22T03:20:15.140Z,4.65
2023-04-22T03:22:41.642Z,4.03
2023-04-22T03:25:08.386Z,4.72
2023-04-22T03:27:34.922Z,3.95
2023-04-22T03:30:01.391Z,4.80
2023-04-22T03:32:27.981Z,4.43
2023-04-22T03:34:54.478Z,4.70
2023-04-22T03:37:21.022Z,4.35
2023-04-22T03:39:47.506Z,4.35
2023-04-22T03:42:14.512Z,4.38
2023-04-22T03:44:42.012Z,4.93
2023-04-22T03:47:08.469Z,4.47
2023-04-22T03:49:35.093Z,4.38
2023-04-22T03:52:01.651Z,3.90
2023-04-22T03:54:28.187Z,4.53
2023-04-22T03:56:54.681Z,4.70
2023-04-22T03:59:21.236Z,4.82
2023-04-22T04:01:47.713Z,4.07
2023-04-22T04:04:14.400Z,3.80
2023-04-22T04:06:41.046Z,3.92
2023-04-22T04:09:07.674Z,3.97
2023-04-22T04:11:34.270Z,4.50
2023-04-22T04:14:00.929Z,4.80
2023-04-22T04:16:27.431Z,4.43
2023-04-22T04:18:53.973Z,4.53
2023-04-22T04:21:20.436Z,4.80
2023-04-22T04:23:47.332Z,4.95
2023-04-22T04:26:15.053Z,5.30
2023-04-22T04:28:41.843Z,4.57
2023-04-22T04:31:08.367Z,4.47
2023-04-22T04:33:36.953Z,4.50
2023-04-22T04:36:03.532Z,4.95
2023-04-22T04:38:30.214Z,4.57
2023-04-22T04:40:56.685Z,4.97
2023-04-22T04:43:25.875Z,5.00
2023-04-22T04:45:52.933Z,4.55
2023-04-22T04:48:24.996Z,6.03
2023-04-22T04:50:53.948Z,5.57
2023-04-22T04:53:21.373Z,4.88
2023-04-22T04:55:47.938Z,5.05
2023-04-22T04:58:14.406Z,4.90
2023-04-22T05:00:40.870Z,5.07
2023-04-22T05:03:07.610Z,5.03
2023-04-22T05:05:34.458Z,6.28
2023-04-22T05:08:01.245Z,6.25
2023-04-22T05:10:27.741Z,6.40
2023-04-22T05:12:54.574Z,6.20
2023-04-22T05:15:21.094Z,5.50
2023-04-22T05:17:47.585Z,5.75
2023-04-22T05:20:14.086Z,6.00
2023-04-22T05:22:43.236Z,7.07
2023-04-22T05:25:10.612Z,6.18
2023-04-22T05:27:37.125Z,6.28
2023-04-22T05:30:03.857Z,6.00
2023-04-22T05:32:30.345Z,5.90
2023-04-22T05:34:56.876Z,6.03
2023-04-22T05:37:23.359Z,6.53
2023-04-22T05:39:49.810Z,6.80
2023-04-22T05:42:16.359Z,6.35
2023-04-22T05:44:42.828Z,6.72
2023-04-22T05:47:09.265Z,6.95
2023-04-22T05:49:36.387Z,7.63
2023-04-22T05:52:02.891Z,8.73
2023-04-22T05:54:29.567Z,8.82
2023-04-22T05:56:56.910Z,8.25
2023-04-22T05:59:23.409Z,7.88
2023-04-22T06:01:50.050Z,8.25
2023-04-22T06:04:16.954Z,7.75
2023-04-22T06:06:43.568Z,8.10
2023-04-22T06:09:24.723Z,8.10
2023-04-22T06:11:51.181Z,7.38
2023-04-22T06:14:17.749Z,7.60
2023-04-22T06:16:44.636Z,7.05
2023-04-22T06:19:11.575Z,6.90
2023-04-22T06:21:40.516Z,6.80
2023-04-22T06:24:07.771Z,7.18
2023-04-22T06:26:34.506Z,6.97
2023-04-22T06:29:03.158Z,8.10
2023-04-22T06:31:29.693Z,6.97
2023-04-22T06:33:56.253Z,8.15
2023-04-22T06:36:22.977Z,7.45
2023-04-22T06:38:49.512Z,6.68
2023-04-22T06:41:16.764Z,7.18
2023-04-22T06:43:43.481Z,6.03
2023-04-22T06:46:10.122Z,6.72
2023-04-22T06:48:36.607Z,6.72
2023-04-22T06:51:03.095Z,6.63
2023-04-22T06:53:29.560Z,6.35
2023-04-22T06:55:56.275Z,6.63
2023-04-22T06:58:22.802Z,5.68
2023-04-22T07:00:49.232Z,5.97
2023-04-22T07:03:15.887Z,5.90
2023-04-22T07:05:42.614Z,6.25
2023-04-22T07:08:09.237Z,5.78
2023-04-22T07:10:35.768Z,5.78
2023-04-22T07:13:02.345Z,6.13
2023-04-22T07:15:28.861Z,5.47
2023-04-22T07:17:55.678Z,5.95
2023-04-22T07:20:22.267Z,6.20
2023-04-22T07:22:48.706Z,5.60
2023-04-22T07:25:18.843Z,5.60
2023-04-22T07:27:45.709Z,6.10
2023-04-22T07:30:13.359Z,5.35
2023-04-22T07:32:39.976Z,5.05
2023-04-22T07:35:06.770Z,5.22
2023-04-22T07:37:33.217Z,5.50
2023-04-22T07:39:59.779Z,5.28
2023-04-22T07:42:26.391Z,5.10
2023-04-22T07:44:52.851Z,4.53
2023-04-22T07:47:19.292Z,4.47
2023-04-22T07:49:45.805Z,3.60
2023-04-22T07:52:12.299Z,4.38
2023-04-22T07:54:38.823Z,4.28
2023-04-22T07:57:05.455Z,4.57
2023-04-22T07:59:31.989Z,4.68
2023-04-22T08:01:58.478Z,5.30
2023-04-22T08:04:25.324Z,4.00
2023-04-22T08:06:55.057Z,4.40
2023-04-22T08:09:21.706Z,5.40
2023-04-22T08:11:48.241Z,4.93
2023-04-22T08:14:14.967Z,4.45
2023-04-22T08:16:41.776Z,5.13
2023-04-22T08:19:10.923Z,5.00
2023-04-22T08:21:37.527Z,4.57
2023-04-22T08:24:13.071Z,5.43
2023-04-22T08:26:40.755Z,4.80
2023-04-22T08:29:07.392Z,4.70
2023-04-22T08:31:34.587Z,4.68
2023-04-22T08:34:01.418Z,4.28
2023-04-22T08:36:28.455Z,4.28
2023-04-22T08:38:55.368Z,5.03
2023-04-22T08:41:22.255Z,4.88
2023-04-22T08:43:49.371Z,5.40
2023-04-22T08:46:17.483Z,4.88
2023-04-22T08:48:43.959Z,5.05
2023-04-22T08:51:11.203Z,4.95
2023-04-22T08:53:38.493Z,4.97
2023-04-22T08:56:05.657Z,6.00
2023-04-22T08:58:34.245Z,4.78
2023-04-22T09:01:02.346Z,5.40
2023-04-22T09:03:31.893Z,4.97
2023-04-22T09:05:59.427Z,4.60
2023-04-22T09:08:26.677Z,4.55
2023-04-22T09:10:53.285Z,5.20
2023-04-22T09:13:21.004Z,4.72
2023-04-22T09:15:47.777Z,5.72
2023-04-22T09:18:16.986Z,4.88
2023-04-22T09:20:43.506Z,5.15
2023-04-22T09:23:12.023Z,5.00
2023-04-22T09:25:40.597Z,5.15
2023-04-22T09:28:11.295Z,4.72
2023-04-22T09:30:37.951Z,4.32
2023-04-22T09:33:05.908Z,4.40
2023-04-22T09:35:37.547Z,4.03
2023-04-22T09:38:06.835Z,5.57
2023-04-22T09:40:34.288Z,4.28
2023-04-22T09:43:01.888Z,4.25
2023-04-22T09:45:33.634Z,3.60
2023-04-22T09:48:06.386Z,4.40
2023-04-22T09:50:32.925Z,3.88
2023-04-22T09:53:04.034Z,4.53
2023-04-22T09:55:32.665Z,3.53
2023-04-22T09:58:10.038Z,3.45
2023-04-22T10:00:40.162Z,4.00
2023-04-22T10:03:09.685Z,3.38
2023-04-22T10:05:37.881Z,3.90
2023-04-22T10:08:08.436Z,4.00
2023-04-22T10:10:35.350Z,3.65
2023-04-22T10:13:04.292Z,4.05
2023-04-22T10:15:35.850Z,3.50
2023-04-22T10:18:05.113Z,3.17
2023-04-22T10:20:31.947Z,3.00
2023-04-22T10:22:58.522Z,3.33
2023-04-22T10:25:25.777Z,3.67
2023-04-22T10:28:02.033Z,3.30
2023-04-22T10:30:30.321Z,5.18
2023-04-22T10:33:31.698Z,4.53
2023-04-22T10:36:08.403Z,5.32
2023-04-22T10:38:39.519Z,7.43
2023-04-22T10:41:16.317Z,7.55
2023-04-22T10:43:42.986Z,9.07
2023-04-22T10:46:40.044Z,8.05
2023-04-22T10:49:08.169Z,6.60
2023-04-22T10:51:45.100Z,5.03
2023-04-22T10:54:47.099Z,5.00
2023-04-22T10:57:15.445Z,5.35
2023-04-22T10:59:45.633Z,6.82
2023-04-22T11:02:13.544Z,6.18
2023-04-22T11:04:45.870Z,3.28
2023-04-22T11:07:20.733Z,3.45
2023-04-22T11:09:51.102Z,3.50
2023-04-22T11:12:36.114Z,2.92
2023-04-22T11:15:07.159Z,3.22
2023-04-22T11:17:34.358Z,3.50
2023-04-22T11:20:01.341Z,3.50
2023-04-22T11:22:27.909Z,2.80
2023-04-22T11:24:55.800Z,2.90
2023-04-22T11:27:26.532Z,3.03
2023-04-22T11:30:19.221Z,2.70
2023-04-22T11:32:47.532Z,2.75
2023-04-22T11:35:16.287Z,2.80
2023-04-22T11:37:44.544Z,3.17
2023-04-22T11:42:41.284Z,2.80
2023-04-22T11:45:08.236Z,2.80
2023-04-22T11:47:35.349Z,2.85
2023-04-22T11:50:05.102Z,2.70
2023-04-22T11:52:45.632Z,2.85
2023-04-22T11:55:15.762Z,3.20
2023-04-22T11:57:42.936Z,2.67
2023-04-22T12:00:13.885Z,2.85
2023-04-22T12:02:41.536Z,2.08
2023-04-22T12:05:12.667Z,2.28
2023-04-22T12:07:39.948Z,2.70
2023-04-22T12:10:07.844Z,2.00
2023-04-22T12:12:36.059Z,2.33
2023-04-22T12:15:13.769Z,2.35
2023-04-22T12:17:40.853Z,1.90
2023-04-22T12:20:11.114Z,2.20
2023-04-22T12:22:38.860Z,2.10
2023-04-22T12:25:05.521Z,2.10
2023-04-22T12:27:32.069Z,2.53
2023-04-22T12:29:58.559Z,2.20
2023-04-22T12:32:26.070Z,2.40
2023-04-22T12:34:52.880Z,1.90
2023-04-22T12:37:19.653Z,1.88
2023-04-22T12:39:46.259Z,1.98
2023-04-22T12:42:12.725Z,2.10
2023-04-22T12:44:39.282Z,1.92
2023-04-22T12:47:05.984Z,1.92
2023-04-22T12:49:32.547Z,2.00
2023-04-22T12:51:59.198Z,1.80
2023-04-22T12:54:25.806Z,1.75
2023-04-22T12:56:52.346Z,1.90
2023-04-22T12:59:19.295Z,1.80
2023-04-22T13:01:45.919Z,2.10
2023-04-22T13:04:12.568Z,2.70
2023-04-22T13:06:39.193Z,2.20
2023-04-22T13:09:06.618Z,2.40
2023-04-22T13:11:33.182Z,1.60
2023-04-22T13:13:59.665Z,1.52
2023-04-22T13:16:26.171Z,1.77
2023-04-22T13:18:52.713Z,1.85
2023-04-22T13:21:19.210Z,2.40
2023-04-22T13:23:45.734Z,1.58
2023-04-22T13:26:12.264Z,2.15
2023-04-22T13:28:38.784Z,1.67
2023-04-22T13:31:05.347Z,1.40
2023-04-22T13:33:31.875Z,1.95
2023-04-22T13:35:58.361Z,1.75
2023-04-22T13:38:25.123Z,1.90
2023-04-22T13:40:51.613Z,1.65
2023-04-22T13:43:18.080Z,1.58
2023-04-22T13:45:44.791Z,2.00
2023-04-22T13:48:11.287Z,1.80
2023-04-22T13:50:42.566Z,1.88
2023-04-22T13:53:10.304Z,1.80
2023-04-22T13:55:37.189Z,2.15
2023-04-22T13:58:05.574Z,1.67
2023-04-22T14:00:33.412Z,1.95
2023-04-22T14:03:00.899Z,1.85
2023-04-22T14:05:27.558Z,1.65
2023-04-22T14:07:54.129Z,1.60
2023-04-22T14:10:22.106Z,1.80
2023-04-22T14:12:49.042Z,1.52
2023-04-22T14:15:15.813Z,1.70
2023-04-22T14:17:42.404Z,1.90
2023-04-22T14:20:09.768Z,1.77
2023-04-22T14:22:36.249Z,2.10
2023-04-22T14:25:02.807Z,1.70
2023-04-22T14:27:29.392Z,1.60
2023-04-22T14:29:55.847Z,1.70
2023-04-22T14:32:22.437Z,1.83
2023-04-22T14:34:48.928Z,1.80
2023-04-22T14:37:15.330Z,1.77
2023-04-22T14:39:42.180Z,1.60
2023-04-22T14:42:08.908Z,1.75
2023-04-22T14:44:35.390Z,1.73
2023-04-22T14:47:01.861Z,1.67
2023-04-22T14:49:28.400Z,1.88
2023-04-22T14:51:58.542Z,1.60
2023-04-22T14:54:25.032Z,1.70
2023-04-22T14:56:54.395Z,2.38
2023-04-22T14:59:21.213Z,2.03
2023-04-22T15:01:47.755Z,1.63
2023-04-22T15:04:15.990Z,1.80
2023-04-22T15:06:42.589Z,2.22
2023-04-22T15:09:09.128Z,2.22
2023-04-22T15:11:35.712Z,2.00
2023-04-22T15:14:02.251Z,2.13
2023-04-22T15:16:28.869Z,2.00
2023-04-22T15:18:55.620Z,1.85
2023-04-22T15:21:22.126Z,2.45
2023-04-22T15:23:48.598Z,2.00
2023-04-22T15:26:15.300Z,2.35
2023-04-22T15:28:50.776Z,1.95
2023-04-22T15:31:19.198Z,1.52
2023-04-22T15:33:45.821Z,2.50
2023-04-22T15:36:12.359Z,2.20
2023-04-22T15:38:40.022Z,1.58
2023-04-22T15:41:06.749Z,1.95
2023-04-22T15:43:33.762Z,1.90
2023-04-22T15:46:01.181Z,3.03
2023-04-22T15:48:27.637Z,2.15
2023-04-22T15:50:54.150Z,1.70
2023-04-22T15:53:20.697Z,1.60
2023-04-22T15:55:48.556Z,2.80
2023-04-22T15:58:15.283Z,2.30
2023-04-22T16:00:41.834Z,2.20
2023-04-22T16:03:08.496Z,2.58
2023-04-22T16:05:35.185Z,2.25
2023-04-22T16:08:01.766Z,2.20
2023-04-22T16:10:28.415Z,2.67
2023-04-22T16:12:54.876Z,37.15
2023-04-22T16:15:23.619Z,34.15
2023-04-22T16:17:50.217Z,6.30
2023-04-22T16:20:16.795Z,3.75
2023-04-22T16:22:43.307Z,2.83
2023-04-22T16:25:09.903Z,2.25
2023-04-22T16:27:36.385Z,2.00
2023-04-22T16:30:02.974Z,9.18
2023-04-22T16:32:29.657Z,1.73
2023-04-22T16:34:56.286Z,3.13
2023-04-22T16:37:22.927Z,1.58
2023-04-22T16:39:49.449Z,1.83
2023-04-22T16:42:15.905Z,1.45
2023-04-22T16:44:42.417Z,1.67
2023-04-22T16:47:08.871Z,1.27
2023-04-22T16:49:35.296Z,1.50
2023-04-22T16:52:01.868Z,1.70
2023-04-22T16:54:29.524Z,1.55
2023-04-22T16:56:56.077Z,1.45
2023-04-22T16:59:22.539Z,1.60
2023-04-22T17:01:49.298Z,2.50
2023-04-22T17:04:16.108Z,3.13
2023-04-22T17:06:43.213Z,1.60
2023-04-22T17:09:10.008Z,1.55
2023-04-22T17:11:36.556Z,1.35
2023-04-22T17:14:03.422Z,1.50
2023-04-22T17:16:29.961Z,1.48
2023-04-22T17:18:56.434Z,1.40
2023-04-22T17:21:27.100Z,1.30
2023-04-22T17:23:54.710Z,1.33
2023-04-22T17:26:21.362Z,1.65
2023-04-22T17:28:47.853Z,1.60
2023-04-22T17:31:14.402Z,1.95
2023-04-22T17:33:41.224Z,1.63
2023-04-22T17:36:07.819Z,1.73
2023-04-22T17:38:34.402Z,1.40
2023-04-22T17:41:00.876Z,1.88
2023-04-22T17:43:27.371Z,1.92
2023-04-22T17:45:53.825Z,1.67
2023-04-22T17:48:20.307Z,1.83
2023-04-22T17:50:46.816Z,1.85
2023-04-22T17:53:13.317Z,2.50
2023-04-22T17:55:39.805Z,2.15
2023-04-22T17:58:06.285Z,2.25
2023-04-22T18:00:33.520Z,2.22
2023-04-22T18:03:00.260Z,2.60
2023-04-22T18:05:29.570Z,2.25
2023-04-22T18:08:02.703Z,3.05
2023-04-22T18:10:29.822Z,2.65
2023-04-22T18:12:56.295Z,2.80
2023-04-22T18:15:25.846Z,2.38
2023-04-22T18:17:52.399Z,2.50
2023-04-22T18:20:19.885Z,2.60
2023-04-22T18:22:47.623Z,2.40
2023-04-22T18:25:14.145Z,2.38
2023-04-22T18:27:40.692Z,2.60
2023-04-22T18:30:07.443Z,2.20
2023-04-22T18:32:33.925Z,2.95
2023-04-22T18:35:00.473Z,2.45
2023-04-22T18:37:30.827Z,2.40
2023-04-22T18:39:57.629Z,2.22
2023-04-22T18:42:24.272Z,2.97
2023-04-22T18:44:50.901Z,2.72
2023-04-22T18:47:18.053Z,2.67
2023-04-22T18:49:45.363Z,3.30
2023-04-22T18:52:12.183Z,2.50
2023-04-22T18:54:39.591Z,3.10
2023-04-22T18:57:06.638Z,3.00
2023-04-22T18:59:33.221Z,2.95
2023-04-22T19:01:59.915Z,2.97
2023-04-22T19:04:27.361Z,2.80
2023-04-22T19:06:55.069Z,2.75
2023-04-22T19:09:21.633Z,3.10
2023-04-22T19:11:50.523Z,2.75
2023-04-22T19:14:17.459Z,2.72
2023-04-22T19:16:44.032Z,3.00
2023-04-22T19:19:11.930Z,2.75
2023-04-22T19:21:39.188Z,2.63
2023-04-22T19:24:06.359Z,2.83
2023-04-22T19:26:33.306Z,2.92
2023-04-22T19:28:59.820Z,3.15
2023-04-22T19:31:27.849Z,2.97
2023-04-22T19:33:54.352Z,3.40
2023-04-22T19:36:20.885Z,4.28
2023-04-22T19:38:47.355Z,3.92
2023-04-22T19:41:14.416Z,2.80
2023-04-22T19:43:40.919Z,3.65
2023-04-22T19:46:07.418Z,3.33
2023-04-22T19:48:34.121Z,2.60
2023-04-22T19:51:00.999Z,2.60
2023-04-22T19:53:28.981Z,2.60
2023-04-22T19:55:55.583Z,2.60
2023-04-22T19:58:22.632Z,2.70
2023-04-22T20:00:49.446Z,2.28
2023-04-22T20:03:16.302Z,2.42
2023-04-22T20:05:43.509Z,2.63
2023-04-22T20:08:10.281Z,2.72
2023-04-22T20:10:36.821Z,2.38
2023-04-22T20:13:04.598Z,2.50
2023-04-22T20:15:31.152Z,2.15
2023-04-22T20:17:57.751Z,2.45
2023-04-22T20:20:24.422Z,2.47
2023-04-22T20:22:52.060Z,2.53
2023-04-22T20:25:18.926Z,3.17
2023-04-22T20:27:46.946Z,2.90
2023-04-22T20:30:14.575Z,2.80
2023-04-22T20:32:41.817Z,2.88
2023-04-22T20:35:12.067Z,2.50
2023-04-22T20:37:39.704Z,2.75
2023-04-22T20:40:08.299Z,2.97
2023-04-22T20:42:36.821Z,3.00
2023-04-22T20:45:06.992Z,2.65
2023-04-22T20:47:33.586Z,2.60
2023-04-22T20:50:01.144Z,3.15
2023-04-22T20:52:27.655Z,3.03
2023-04-22T20:54:57.115Z,2.90
2023-04-22T20:57:23.797Z,2.70
2023-04-22T20:59:50.358Z,2.67
2023-04-22T21:02:17.595Z,2.53
2023-04-22T21:04:44.208Z,3.20
2023-04-22T21:07:11.985Z,2.72
2023-04-22T21:09:38.704Z,2.30
2023-04-22T21:12:05.610Z,3.13
2023-04-22T21:14:32.179Z,3.50
2023-04-22T21:16:58.608Z,2.58
2023-04-22T21:19:25.293Z,2.88
2023-04-22T21:21:53.108Z,2.85
2023-04-22T21:24:21.054Z,3.17
2023-04-22T21:26:48.026Z,3.33
2023-04-22T21:29:14.575Z,2.92
2023-04-22T21:31:41.104Z,2.88
2023-04-22T21:34:09.661Z,3.00
2023-04-22T21:36:36.230Z,3.10
2023-04-22T21:39:04.533Z,3.10
2023-04-22T21:41:31.255Z,2.88
2023-04-22T21:43:57.804Z,2.83
2023-04-22T21:46:24.588Z,3.08
2023-04-22T21:48:51.104Z,2.58
2023-04-22T21:51:17.614Z,2.65
2023-04-22T21:53:44.545Z,3.40
2023-04-22T21:56:11.157Z,2.75
2023-04-22T21:58:37.608Z,3.00
2023-04-22T22:01:04.140Z,3.03
2023-04-22T22:03:31.616Z,2.90
2023-04-22T22:05:58.226Z,3.22
2023-04-22T22:08:24.833Z,2.88
2023-04-22T22:10:51.806Z,3.58
2023-04-22T22:13:18.377Z,3.70
2023-04-22T22:15:45.348Z,3.30
2023-04-22T22:18:12.256Z,3.78
2023-04-22T22:20:39.465Z,3.88
2023-04-22T22:23:05.948Z,3.60
2023-04-22T22:25:32.411Z,3.92
2023-04-22T22:27:58.983Z,4.18
2023-04-22T22:30:26.153Z,4.00
2023-04-22T22:32:52.635Z,4.15
2023-04-22T22:35:19.227Z,3.88
2023-04-22T22:37:45.932Z,5.22
2023-04-22T22:40:12.452Z,6.07
2023-04-22T22:42:38.969Z,7.05
2023-04-22T22:45:05.699Z,6.95
2023-04-22T22:47:32.491Z,5.57
2023-04-22T22:49:59.116Z,6.70
2023-04-22T22:52:26.084Z,5.72
2023-04-22T22:54:52.559Z,5.57
2023-04-22T22:57:19.073Z,6.10
2023-04-22T22:59:46.633Z,5.88
2023-04-22T23:02:14.340Z,5.25
2023-04-22T23:04:41.218Z,5.68
2023-04-22T23:07:08.024Z,5.70
2023-04-22T23:09:34.649Z,6.22
2023-04-22T23:12:02.759Z,5.00
2023-04-22T23:14:29.978Z,5.22
2023-04-22T23:16:56.485Z,5.20
2023-04-22T23:19:23.394Z,5.45
2023-04-22T23:21:49.952Z,5.25
2023-04-22T23:24:16.856Z,5.38
2023-04-22T23:26:43.472Z,5.18
2023-04-22T23:29:10.216Z,4.78
2023-04-22T23:31:37.049Z,4.68
2023-04-22T23:34:05.081Z,4.35
2023-04-22T23:36:33.573Z,4.47
2023-04-22T23:39:00.903Z,4.22
2023-04-22T23:41:27.687Z,3.80
2023-04-22T23:43:54.135Z,5.05
2023-04-22T23:46:20.706Z,3.90
2023-04-22T23:48:47.277Z,5.28
2023-04-22T23:51:16.344Z,6.13
2023-04-22T23:53:43.347Z,5.07
2023-04-22T23:56:10.231Z,5.93
2023-04-22T23:58:37.001Z,7.80
